H.kanter — ESUB — position and weather

sailwx.info

Track history (hours):
 
Tides and Currents Weather Stations Pressure Air Temp Water Temp Dewpoint Dewpoint Depression Visibility Wind Speed Wind Dir Waves Ship Positions

H.kanter

Last reported at 2014-Sep-04 15:15 UTC. Time now 2014-Sep-17 09:35 UTC.
Position N 59°30' E 024°56'.
Warning: this ship's position is 12 days out of date.

Length 33 m; draft 4.7 m.

Type: Tug. MMSI: 276504000.

Date/timePositionNaut miles runAvg speedWind from/ knotsBaromVisibWave heightAir tempDewpointWater temp
2014-Sep-04 15:15N 59°30' E 024°56'  
2014-Aug-31 18:33N 59°34' E 024°54'7 7.0
2014-Aug-31 17:33N 59°37' E 024°42'6 6.4
2014-Aug-31 16:33N 59°30' E 024°41'3 3.1
2014-Aug-31 15:33N 59°27' E 024°39'4 3.6
2014-Aug-31 14:33N 59°31' E 024°38'7 7.2
2014-Aug-31 13:33N 59°36' E 024°48'3 0.2
2014-Aug-30 19:33N 59°34' E 024°52'5 5.0
2014-Aug-30 18:33N 59°34' E 024°43'7 6.2
2014-Aug-30 17:26N 59°28' E 024°39'0 0.0
2014-Aug-30 16:05N 59°28' E 024°39'3 6.1
2014-Aug-30 15:33N 59°31' E 024°39'8 7.7
2014-Aug-30 14:34N 59°38' E 024°46'  
Track history (hours):
 
Tides and Currents Weather Stations Pressure Air Temp Water Temp Dewpoint Dewpoint Depression Visibility Wind Speed Wind Dir Waves Ship Positions

H.kanter

Last reported at 2014-Sep-04 15:15 UTC. Time now 2014-Sep-17 09:35 UTC.
Position N 59°30' E 024°56'.
Warning: this ship's position is 12 days out of date.

Length 33 m; draft 4.7 m.

Type: Tug. MMSI: 276504000.

Date/timePositionNaut miles runAvg speedWind from/ knotsBaromVisibWave heightAir tempDewpointWater temp
2014-Sep-04 15:15N 59°30' E 024°56'  
2014-Aug-31 18:33N 59°34' E 024°54'7 7.0
2014-Aug-31 17:33N 59°37' E 024°42'6 6.4
2014-Aug-31 16:33N 59°30' E 024°41'3 3.1
2014-Aug-31 15:33N 59°27' E 024°39'4 3.6
2014-Aug-31 14:33N 59°31' E 024°38'7 7.2
2014-Aug-31 13:33N 59°36' E 024°48'3 0.2
2014-Aug-30 19:33N 59°34' E 024°52'5 5.0
2014-Aug-30 18:33N 59°34' E 024°43'7 6.2
2014-Aug-30 17:26N 59°28' E 024°39'0 0.0
2014-Aug-30 16:05N 59°28' E 024°39'3 6.1
2014-Aug-30 15:33N 59°31' E 024°39'8 7.7
2014-Aug-30 14:34N 59°38' E 024°46'  

Dump ship's entire track history